createdAt,value
2019-05-18T00:01:39.662Z,100115.48
2019-05-18T00:04:11.691Z,100113.23
2019-05-18T00:06:43.883Z,100117.33
2019-05-18T00:09:15.936Z,100113.18
2019-05-18T00:11:50.063Z,100120.34
2019-05-18T00:14:22.134Z,100114.13
2019-05-18T00:16:54.163Z,100114.02
2019-05-18T00:19:26.638Z,100106.05
2019-05-18T00:21:58.687Z,100103.80
2019-05-18T00:24:32.866Z,100105.27
2019-05-18T00:27:04.971Z,100103.09
2019-05-18T00:29:39.841Z,100098.55
2019-05-18T00:32:12.018Z,100101.19
2019-05-18T00:34:44.103Z,100096.65
2019-05-18T00:37:17.841Z,100091.88
2019-05-18T00:39:50.429Z,100086.65
2019-05-18T00:42:22.551Z,100080.70
2019-05-18T00:44:54.632Z,100076.03
2019-05-18T00:47:40.364Z,100069.08
2019-05-18T00:50:01.360Z,100057.80
2019-05-18T00:52:35.338Z,100057.80
2019-05-18T00:55:07.809Z,100053.87
2019-05-18T00:57:39.851Z,100055.95
2019-05-18T01:00:12.794Z,100048.95
2019-05-18T01:02:44.800Z,100056.20
2019-05-18T01:05:16.947Z,100058.36
2019-05-18T01:07:48.955Z,100060.38
2019-05-18T01:10:21.331Z,100058.95
2019-05-18T01:12:53.508Z,100059.97
2019-05-18T01:15:25.781Z,100054.33
2019-05-18T01:18:02.304Z,100054.77
2019-05-18T01:20:34.059Z,100047.93
2019-05-18T01:23:06.210Z,100043.37
2019-05-18T01:25:38.240Z,100037.98
2019-05-18T01:28:12.161Z,100050.13
2019-05-18T01:30:46.319Z,100042.99
2019-05-18T01:33:18.384Z,100043.73
2019-05-18T01:35:50.450Z,100043.07
2019-05-18T01:38:23.700Z,100038.95
2019-05-18T01:40:55.681Z,100039.48
2019-05-18T01:43:27.650Z,100037.47
2019-05-18T01:45:59.654Z,100030.86
2019-05-18T01:48:31.641Z,100033.01
2019-05-18T01:51:04.010Z,100039.57
2019-05-18T01:53:36.048Z,100031.62
2019-05-18T01:56:09.815Z,100027.70
2019-05-18T01:58:41.960Z,100018.78
2019-05-18T02:01:14.081Z,100015.25
2019-05-18T02:03:46.144Z,100008.38
2019-05-18T02:06:18.243Z,99995.62
2019-05-18T02:08:50.271Z,99990.23
2019-05-18T02:11:22.380Z,99991.30
2019-05-18T02:13:54.404Z,99992.75
2019-05-18T02:16:26.484Z,99992.86
2019-05-18T02:19:00.106Z,99988.70
2019-05-18T02:21:32.126Z,99987.76
2019-05-18T02:24:04.450Z,99978.59
2019-05-18T02:26:36.627Z,99983.73
2019-05-18T02:29:08.742Z,99986.12
2019-05-18T02:31:42.521Z,99989.20
2019-05-18T02:34:15.766Z,99986.22
2019-05-18T02:36:47.942Z,99981.22
2019-05-18T02:39:19.941Z,99983.36
2019-05-18T02:41:53.640Z,99982.24
2019-05-18T02:44:25.712Z,99984.47
2019-05-18T02:46:59.418Z,99990.38
2019-05-18T02:49:31.372Z,99982.76
2019-05-18T02:52:03.455Z,99981.30
2019-05-18T02:54:35.473Z,99985.56
2019-05-18T02:57:10.039Z,99973.62
2019-05-18T02:59:42.110Z,99989.83
2019-05-18T03:02:14.525Z,99988.39
2019-05-18T03:04:46.638Z,99983.16
2019-05-18T03:07:18.760Z,99982.55
2019-05-18T03:09:51.008Z,99982.92
2019-05-18T03:12:25.824Z,99987.47
2019-05-18T03:14:58.272Z,99989.48
2019-05-18T03:17:30.432Z,99990.23
2019-05-18T03:20:02.437Z,99993.33
2019-05-18T03:22:34.379Z,99997.19
2019-05-18T03:25:08.758Z,99997.80
2019-05-18T03:27:40.850Z,100001.02
2019-05-18T03:30:13.361Z,100001.16
2019-05-18T03:32:47.113Z,100005.42
2019-05-18T03:35:21.570Z,99999.84
2019-05-18T03:37:56.176Z,100001.39
2019-05-18T03:40:31.531Z,99993.08
2019-05-18T03:43:08.866Z,99994.16
2019-05-18T03:45:42.664Z,99979.98
2019-05-18T03:48:14.635Z,99964.15
2019-05-18T03:50:46.698Z,99967.23
2019-05-18T03:53:20.963Z,99964.75
2019-05-18T03:55:52.902Z,99968.16
2019-05-18T03:58:24.994Z,99968.23
2019-05-18T04:00:57.483Z,99966.88
2019-05-18T04:03:32.606Z,99960.90
2019-05-18T04:06:04.712Z,99958.76
2019-05-18T04:08:38.610Z,99965.91
2019-05-18T04:11:10.641Z,99961.77
2019-05-18T04:13:42.961Z,99967.84
2019-05-18T04:16:15.009Z,99963.67
2019-05-18T04:18:47.105Z,99966.05
2019-05-18T04:21:20.808Z,99969.09
2019-05-18T04:23:52.811Z,99970.48
2019-05-18T04:26:25.244Z,99969.74
2019-05-18T04:28:57.263Z,99962.67
2019-05-18T04:31:32.120Z,99959.05
2019-05-18T04:34:03.080Z,99961.97
2019-05-18T04:36:36.755Z,99967.73
2019-05-18T04:39:08.782Z,99970.91
2019-05-18T04:41:40.766Z,99971.41
2019-05-18T04:44:12.742Z,99971.92
2019-05-18T04:46:44.834Z,99967.40
2019-05-18T04:49:16.855Z,99964.47
2019-05-18T04:51:49.032Z,99968.53
2019-05-18T04:54:21.137Z,99972.23
2019-05-18T04:56:54.999Z,99969.91
2019-05-18T04:59:27.423Z,99970.07
2019-05-18T05:01:59.442Z,99977.87
2019-05-18T05:04:31.445Z,99975.08
2019-05-18T05:07:03.409Z,99971.98
2019-05-18T05:09:36.861Z,99977.38
2019-05-18T05:12:10.804Z,99976.54
2019-05-18T05:14:43.699Z,99980.00
2019-05-18T05:17:15.726Z,99986.78
2019-05-18T05:19:47.719Z,99986.20
2019-05-18T05:22:19.770Z,99992.63
2019-05-18T05:24:51.724Z,99990.88
2019-05-18T05:27:25.150Z,99997.06
2019-05-18T05:29:57.176Z,99997.20
2019-05-18T05:32:30.450Z,100003.98
2019-05-18T05:35:02.698Z,99980.98
2019-05-18T05:37:34.705Z,99982.52
2019-05-18T05:40:07.366Z,99965.13
2019-05-18T05:42:40.944Z,99963.45
2019-05-18T05:45:13.294Z,99964.34
2019-05-18T05:47:45.235Z,99966.62
2019-05-18T05:50:17.792Z,99964.16
2019-05-18T05:52:49.765Z,99970.59
2019-05-18T05:55:21.904Z,99970.14
2019-05-18T05:57:55.839Z,99972.75
2019-05-18T06:00:28.237Z,99968.34
2019-05-18T06:03:00.237Z,99978.94
2019-05-18T06:05:32.263Z,99978.06
2019-05-18T06:08:05.336Z,99977.05
2019-05-18T06:10:37.432Z,99971.41
2019-05-18T06:13:09.431Z,99972.59
2019-05-18T06:15:41.365Z,99976.16
2019-05-18T06:18:13.301Z,99974.12
2019-05-18T06:20:51.476Z,99971.78
2019-05-18T06:23:19.146Z,99964.48
2019-05-18T06:25:53.389Z,99967.53
2019-05-18T06:28:26.329Z,99964.66
2019-05-18T06:30:58.347Z,99967.33
2019-05-18T06:33:30.333Z,99963.46
2019-05-18T06:36:03.625Z,99959.88
2019-05-18T06:38:35.650Z,99964.30
2019-05-18T06:41:07.634Z,99968.41
2019-05-18T06:43:39.674Z,99968.13
2019-05-18T06:46:12.953Z,99973.80
2019-05-18T06:48:44.957Z,99969.45
2019-05-18T06:51:16.968Z,99971.23
2019-05-18T06:53:51.429Z,99973.35
2019-05-18T06:56:23.820Z,99968.11
2019-05-18T06:58:57.405Z,99976.22
2019-05-18T07:01:29.448Z,99975.37
2019-05-18T07:04:06.246Z,99973.87
2019-05-18T07:06:38.247Z,99972.86
2019-05-18T07:09:14.139Z,99983.75
2019-05-18T07:11:45.363Z,99973.77
2019-05-18T07:14:25.624Z,99985.38
2019-05-18T07:16:52.877Z,99985.38
2019-05-18T07:19:24.937Z,99979.91
2019-05-18T07:21:56.931Z,99979.91
2019-05-18T07:24:30.016Z,99987.91
2019-05-18T07:27:02.153Z,99986.02
2019-05-18T07:29:34.289Z,99986.64
2019-05-18T07:32:08.299Z,99986.22
2019-05-18T07:34:40.337Z,99989.01
2019-05-18T07:37:12.438Z,99986.80
2019-05-18T07:39:44.403Z,99987.58
2019-05-18T07:42:16.389Z,99997.06
2019-05-18T07:44:48.388Z,99995.91
2019-05-18T07:47:20.418Z,99997.35
2019-05-18T07:49:52.440Z,100002.80
2019-05-18T07:52:24.422Z,100004.05
2019-05-18T07:54:58.057Z,100000.09
2019-05-18T07:57:31.727Z,100005.55
2019-05-18T08:00:05.935Z,100001.97
2019-05-18T08:02:38.003Z,100007.25
2019-05-18T08:05:12.405Z,100007.70
2019-05-18T08:07:44.504Z,100011.89
2019-05-18T08:10:21.423Z,100012.17
2019-05-18T08:12:55.110Z,100008.89
2019-05-18T08:15:27.168Z,100010.20
2019-05-18T08:17:59.844Z,100010.81
2019-05-18T08:20:35.190Z,100010.84
2019-05-18T08:23:06.959Z,100012.55
2019-05-18T08:25:38.997Z,100020.29
2019-05-18T08:28:11.542Z,100018.33
2019-05-18T08:30:45.114Z,100019.84
2019-05-18T08:33:17.219Z,100021.56
2019-05-18T08:35:49.586Z,100020.05
2019-05-18T08:38:21.616Z,100017.17
2019-05-18T08:40:53.763Z,100012.64
2019-05-18T08:43:25.864Z,100014.69
2019-05-18T08:45:57.995Z,100018.92
2019-05-18T08:48:30.244Z,100015.70
2019-05-18T08:51:02.407Z,100007.86
2019-05-18T08:53:45.739Z,100000.00
2019-05-18T08:56:41.766Z,100000.00
2019-05-18T08:59:13.850Z,100011.39
2019-05-18T09:01:49.121Z,100012.61
2019-05-18T09:04:30.696Z,100008.59
2019-05-18T09:07:02.739Z,100013.34
2019-05-18T09:09:34.911Z,100010.42
2019-05-18T09:12:06.545Z,100010.63
2019-05-18T09:14:38.394Z,100013.70
2019-05-18T09:17:09.821Z,100020.89
2019-05-18T09:19:42.452Z,100022.09
2019-05-18T09:22:25.861Z,100025.89
2019-05-18T09:24:59.555Z,100026.30
2019-05-18T09:27:33.085Z,100016.52
2019-05-18T09:30:07.555Z,100014.03
2019-05-18T09:32:39.896Z,100008.06
2019-05-18T09:40:40.525Z,100011.42
2019-05-18T09:43:14.203Z,100020.13
2019-05-18T09:45:47.971Z,100017.19
2019-05-18T09:48:23.844Z,100015.09
2019-05-18T09:50:56.475Z,100018.62
2019-05-18T09:53:30.176Z,100008.58
2019-05-18T09:56:03.603Z,100006.16
2019-05-18T09:58:35.640Z,100005.00
2019-05-18T10:01:07.880Z,100008.62
2019-05-18T10:03:39.927Z,100005.17
2019-05-18T10:06:13.027Z,100005.33
2019-05-18T10:08:45.191Z,100013.60
2019-05-18T10:11:17.728Z,100020.66
2019-05-18T10:13:49.857Z,100012.92
2019-05-18T10:16:21.955Z,100016.26
2019-05-18T10:18:54.092Z,100017.60
2019-05-18T10:21:26.242Z,100012.31
2019-05-18T10:23:58.320Z,100026.87
2019-05-18T10:26:33.461Z,100031.45
2019-05-18T10:29:05.868Z,100033.91
2019-05-18T10:31:38.605Z,100031.21
2019-05-18T10:34:10.854Z,100024.05
2019-05-18T10:36:42.911Z,100018.78
2019-05-18T10:39:15.358Z,100025.04
2019-05-18T10:41:52.038Z,100023.73
2019-05-18T10:44:24.178Z,100027.20
2019-05-18T10:46:56.178Z,100025.56
2019-05-18T10:49:28.294Z,100028.84
2019-05-18T10:52:01.861Z,100021.16
2019-05-18T10:54:33.837Z,100023.87
2019-05-18T10:57:06.096Z,100026.30
2019-05-18T10:59:38.179Z,100026.42
2019-05-18T11:02:11.048Z,100018.81
2019-05-18T11:04:43.326Z,100022.67
2019-05-18T11:07:15.421Z,100021.22
2019-05-18T11:09:47.725Z,100013.64
2019-05-18T11:12:19.733Z,100016.37
2019-05-18T11:14:51.823Z,100016.90
2019-05-18T11:17:25.769Z,100011.84
2019-05-18T11:19:57.791Z,100011.09
2019-05-18T11:22:29.849Z,100005.28
2019-05-18T11:25:01.818Z,100001.02
2019-05-18T11:27:34.201Z,99999.50
2019-05-18T11:30:07.302Z,99998.03
2019-05-18T11:32:39.562Z,99998.54
2019-05-18T11:35:12.383Z,99998.28
2019-05-18T11:37:44.489Z,99995.28
2019-05-18T11:40:17.251Z,99999.57
2019-05-18T11:42:50.621Z,99996.33
2019-05-18T11:45:24.833Z,99990.08
2019-05-18T11:47:57.107Z,99996.88
2019-05-18T11:50:29.520Z,99989.92
2019-05-18T11:53:03.456Z,99988.08
2019-05-18T11:55:38.585Z,99983.49
2019-05-18T11:58:13.822Z,99986.25
2019-05-18T12:00:47.542Z,99990.09
2019-05-18T12:03:19.561Z,99979.19
2019-05-18T12:05:59.206Z,99977.61
2019-05-18T12:11:05.527Z,99977.33
2019-05-18T12:13:39.391Z,99974.85
2019-05-18T12:16:12.902Z,99885.36
2019-05-18T12:18:47.559Z,99968.70
2019-05-18T12:21:22.658Z,99955.19
2019-05-18T12:23:54.785Z,99953.67
2019-05-18T12:26:26.863Z,99955.16
2019-05-18T12:29:00.834Z,99951.44
2019-05-18T12:31:34.731Z,99959.34
2019-05-18T12:34:06.753Z,99962.69
2019-05-18T12:36:38.861Z,99968.81
2019-05-18T12:39:16.932Z,99968.99
2019-05-18T12:41:48.971Z,99967.70
2019-05-18T12:44:21.437Z,99971.68
2019-05-18T12:46:53.421Z,99981.84
2019-05-18T12:49:25.539Z,99977.50
2019-05-18T12:51:58.117Z,99981.21
2019-05-18T12:54:45.600Z,99987.14
2019-05-18T12:57:05.877Z,99986.38
2019-05-18T12:59:41.966Z,99994.13
2019-05-18T13:02:15.559Z,99994.47
2019-05-18T13:04:47.524Z,99992.48
2019-05-18T13:07:19.694Z,99980.73
2019-05-18T13:09:51.760Z,99976.92
2019-05-18T13:12:23.971Z,99974.11
2019-05-18T13:14:55.984Z,99964.19
2019-05-18T13:17:31.150Z,99973.56
2019-05-18T13:20:03.298Z,99966.34
2019-05-18T13:22:35.388Z,99963.92
2019-05-18T13:25:12.429Z,99956.91
2019-05-18T13:27:44.509Z,99951.36
2019-05-18T13:30:19.887Z,99952.81
2019-05-18T13:32:50.753Z,99950.22
2019-05-18T13:35:24.653Z,99951.14
2019-05-18T13:37:57.301Z,99944.64
2019-05-18T13:40:29.216Z,99947.06
2019-05-18T13:43:08.463Z,99945.69
2019-05-18T13:45:41.065Z,99952.63
2019-05-18T13:48:15.279Z,99955.89
2019-05-18T13:50:48.229Z,99952.36
2019-05-18T13:53:20.160Z,99949.09
2019-05-18T13:55:52.615Z,99953.29
2019-05-18T13:58:24.851Z,99971.06
2019-05-18T14:00:56.912Z,99959.84
2019-05-18T14:03:28.847Z,99964.69
2019-05-18T14:06:00.829Z,99955.18
2019-05-18T14:08:33.036Z,99953.73
2019-05-18T14:11:06.497Z,99961.09
2019-05-18T14:13:40.244Z,99951.75
2019-05-18T14:16:14.430Z,99954.16
2019-05-18T14:18:46.516Z,99952.34
2019-05-18T14:21:20.272Z,99946.57
2019-05-18T14:23:52.358Z,99938.27
2019-05-18T14:26:24.324Z,99940.44
2019-05-18T14:28:56.339Z,99934.63
2019-05-18T14:31:28.327Z,99940.78
2019-05-18T14:34:00.767Z,99937.66
2019-05-18T14:36:34.679Z,99939.67
2019-05-18T14:39:11.992Z,99938.42
2019-05-18T14:41:44.414Z,99940.56
2019-05-18T14:44:16.559Z,99931.32
2019-05-18T14:47:06.348Z,99939.53
2019-05-18T14:49:38.398Z,99937.26
2019-05-18T14:52:12.160Z,99934.57
2019-05-18T14:54:45.400Z,99934.67
2019-05-18T14:57:17.439Z,99933.11
2019-05-18T14:59:49.448Z,99926.96
2019-05-18T15:02:21.786Z,99920.23
2019-05-18T15:04:57.119Z,99915.94
2019-05-18T15:07:29.242Z,99925.30
2019-05-18T15:10:03.399Z,99930.09
2019-05-18T15:12:35.576Z,99921.63
2019-05-18T15:15:09.356Z,99923.13
2019-05-18T15:17:41.435Z,99911.58
2019-05-18T15:20:14.341Z,99916.39
2019-05-18T15:22:46.439Z,99911.34
2019-05-18T15:25:20.523Z,99917.44
2019-05-18T15:27:52.456Z,99913.04
2019-05-18T15:30:40.127Z,99908.06
2019-05-18T15:33:12.452Z,99906.20
2019-05-18T15:35:44.526Z,99907.33
2019-05-18T15:38:16.604Z,99907.95
2019-05-18T15:40:48.632Z,99909.88
2019-05-18T15:43:24.787Z,99912.19
2019-05-18T15:45:58.018Z,99913.04
2019-05-18T15:48:30.113Z,99906.19
2019-05-18T15:51:03.328Z,99908.23
2019-05-18T15:53:35.380Z,99914.16
2019-05-18T15:56:07.341Z,99913.19
2019-05-18T15:58:39.364Z,99918.02
2019-05-18T16:01:11.978Z,99921.38
2019-05-18T16:03:44.315Z,99920.25
2019-05-18T16:06:16.342Z,99912.50
2019-05-18T16:08:51.119Z,99929.48
2019-05-18T16:11:23.222Z,99926.83
2019-05-18T16:13:55.397Z,99926.19
2019-05-18T16:16:27.433Z,99917.89
2019-05-18T16:18:59.600Z,99919.02
2019-05-18T16:21:31.658Z,99916.59
2019-05-18T16:24:03.989Z,99925.84
2019-05-18T16:26:36.004Z,99919.55
2019-05-18T16:29:08.022Z,99924.39
2019-05-18T16:31:42.324Z,99926.36
2019-05-18T16:34:14.446Z,99929.34
2019-05-18T16:36:46.557Z,99927.88
2019-05-18T16:39:18.570Z,99907.31
2019-05-18T16:41:50.636Z,99931.33
2019-05-18T16:44:24.545Z,99930.19
2019-05-18T16:46:56.539Z,99925.55
2019-05-18T16:49:29.189Z,99928.83
2019-05-18T16:52:03.509Z,99932.83
2019-05-18T16:54:35.552Z,99939.13
2019-05-18T16:57:07.722Z,99932.82
2019-05-18T16:59:39.818Z,99927.02
2019-05-18T17:02:12.524Z,99925.05
2019-05-18T17:04:44.999Z,99934.47
2019-05-18T17:07:17.281Z,99929.83
2019-05-18T17:09:49.495Z,99936.64
2019-05-18T17:12:21.598Z,99931.64
2019-05-18T17:14:54.629Z,99936.47
2019-05-18T17:17:28.009Z,99950.19
2019-05-18T17:20:00.717Z,99946.37
2019-05-18T17:22:41.039Z,99945.93
2019-05-18T17:25:13.961Z,99947.55
2019-05-18T17:27:46.238Z,99955.80
2019-05-18T17:30:18.667Z,99955.93
2019-05-18T17:32:50.948Z,99956.09
2019-05-18T17:35:23.034Z,99949.69
2019-05-18T17:37:55.211Z,99953.27
2019-05-18T17:40:27.697Z,99954.96
2019-05-18T17:42:59.960Z,99960.54
2019-05-18T17:45:32.352Z,99959.59
2019-05-18T17:48:06.139Z,99957.92
2019-05-18T17:50:38.470Z,99959.84
2019-05-18T17:53:13.355Z,99965.41
2019-05-18T17:55:46.483Z,99950.24
2019-05-18T17:58:19.235Z,99963.56
2019-05-18T18:00:51.939Z,99960.22
2019-05-18T18:03:23.940Z,99965.06
2019-05-18T18:05:56.588Z,99972.50
2019-05-18T18:08:28.893Z,99968.59
2019-05-18T18:11:04.434Z,99971.23
2019-05-18T18:13:36.491Z,99971.64
2019-05-18T18:16:10.229Z,99969.66
2019-05-18T18:18:44.537Z,99982.39
2019-05-18T18:21:16.673Z,99979.08
2019-05-18T18:23:54.785Z,99977.59
2019-05-18T18:26:24.692Z,99984.80
2019-05-18T18:28:56.859Z,99982.44
2019-05-18T18:31:28.983Z,99985.33
2019-05-18T18:34:02.019Z,99983.80
2019-05-18T18:36:34.362Z,99995.00
2019-05-18T18:39:08.570Z,99989.02
2019-05-18T18:41:43.022Z,99987.44
2019-05-18T18:44:17.381Z,99985.75
2019-05-18T18:46:50.001Z,99996.30
2019-05-18T18:49:24.655Z,99995.98
2019-05-18T18:52:01.533Z,99993.07
2019-05-18T18:58:25.111Z,100001.83
2019-05-18T19:00:59.065Z,100009.13
2019-05-18T19:03:31.495Z,100005.45
2019-05-18T19:06:04.012Z,100011.56
2019-05-18T19:08:36.311Z,100010.92
2019-05-18T19:11:08.652Z,100008.00
2019-05-18T19:13:41.100Z,100010.98
2019-05-18T19:16:13.702Z,100010.23
2019-05-18T19:18:46.042Z,100009.58
2019-05-18T19:21:18.665Z,100003.16
2019-05-18T19:23:50.797Z,100003.39
2019-05-18T19:26:22.979Z,100004.71
2019-05-18T19:28:55.178Z,100016.41
2019-05-18T19:31:28.859Z,100022.50
2019-05-18T19:34:06.656Z,100021.48
2019-05-18T19:36:38.796Z,100016.48
2019-05-18T19:39:11.339Z,100017.03
2019-05-18T19:41:47.757Z,100009.41
2019-05-18T19:44:23.920Z,100009.82
2019-05-18T19:46:55.633Z,100008.14
2019-05-18T19:49:27.669Z,100007.11
2019-05-18T19:51:59.961Z,100009.11
2019-05-18T19:54:32.938Z,100012.38
2019-05-18T19:57:08.183Z,100016.37
2019-05-18T19:59:44.849Z,100020.22
2019-05-18T20:02:18.438Z,100018.95
2019-05-18T20:05:06.474Z,100020.16
2019-05-18T20:07:50.100Z,100030.83
2019-05-18T20:10:57.847Z,100026.71
2019-05-18T20:13:29.377Z,100033.53
2019-05-18T20:16:02.774Z,100035.08
2019-05-18T20:18:34.799Z,100031.31
2019-05-18T20:21:06.863Z,100035.00
2019-05-18T20:23:40.291Z,100047.66
2019-05-18T20:26:14.824Z,100051.75
2019-05-18T20:28:46.820Z,100041.75
2019-05-18T20:31:26.797Z,100045.19
2019-05-18T20:36:07.514Z,100042.84
2019-05-18T20:37:23.666Z,100047.00
2019-05-18T20:43:46.663Z,100056.20
2019-05-18T20:47:17.231Z,100059.13
2019-05-18T20:49:52.904Z,100063.80
2019-05-18T20:52:48.704Z,100063.91
2019-05-18T20:55:23.955Z,100068.57
2019-05-18T20:57:56.065Z,100068.82
2019-05-18T21:00:28.314Z,100074.30
2019-05-18T21:03:02.363Z,100066.09
2019-05-18T21:05:38.328Z,100073.16
2019-05-18T21:08:10.497Z,100068.25
2019-05-18T21:10:45.326Z,100070.19
2019-05-18T21:13:17.473Z,100074.47
2019-05-18T21:15:52.822Z,100075.28
2019-05-18T21:18:24.913Z,100072.31
2019-05-18T21:20:59.501Z,100075.78
2019-05-18T21:23:31.587Z,100066.23
2019-05-18T21:26:04.431Z,100062.67
2019-05-18T21:28:54.765Z,100069.82
2019-05-18T21:31:16.563Z,100065.41
2019-05-18T21:33:48.717Z,100063.87
2019-05-18T21:36:20.744Z,100059.44
2019-05-18T21:38:54.913Z,100063.38
2019-05-18T21:41:31.663Z,100056.48
2019-05-18T21:44:03.796Z,100062.79
2019-05-18T21:46:38.974Z,100056.95
2019-05-18T21:49:33.489Z,100061.81
2019-05-18T21:52:07.604Z,100067.46
2019-05-18T21:54:39.661Z,100062.69
2019-05-18T21:57:11.829Z,100049.09
2019-05-18T21:59:44.269Z,100046.11
2019-05-18T22:02:16.457Z,100044.59
2019-05-18T22:04:48.486Z,100045.30
2019-05-18T22:07:20.456Z,100055.65
2019-05-18T22:09:54.189Z,100053.63
2019-05-18T22:12:26.218Z,100054.34
2019-05-18T22:14:58.288Z,100061.27
2019-05-18T22:17:30.745Z,100070.31
2019-05-18T22:20:03.862Z,100063.75
2019-05-18T22:22:37.518Z,100065.30
2019-05-18T22:25:09.785Z,100066.75
2019-05-18T22:27:44.941Z,100065.21
2019-05-18T22:30:20.105Z,100063.29
2019-05-18T22:32:52.957Z,100059.36
2019-05-18T22:35:25.221Z,100058.15
2019-05-18T22:37:57.345Z,100052.58
2019-05-18T22:40:29.475Z,100041.01
2019-05-18T22:43:02.255Z,100041.86
2019-05-18T22:45:34.317Z,100043.74
2019-05-18T22:48:06.491Z,100048.62
2019-05-18T22:50:38.527Z,100046.38
2019-05-18T22:53:10.598Z,100044.58
2019-05-18T22:55:42.540Z,100051.47
2019-05-18T22:58:14.515Z,100061.11
2019-05-18T23:00:46.477Z,100061.34
2019-05-18T23:03:18.633Z,100058.95
2019-05-18T23:05:50.632Z,100060.50
2019-05-18T23:08:22.643Z,100048.34
2019-05-18T23:10:54.830Z,100052.51
2019-05-18T23:13:29.885Z,100057.74
2019-05-18T23:16:04.426Z,100055.19
2019-05-18T23:18:39.929Z,100060.79
2019-05-18T23:21:12.620Z,100055.66
2019-05-18T23:23:44.627Z,100051.35
2019-05-18T23:26:16.607Z,100054.56
2019-05-18T23:28:48.586Z,100055.13
2019-05-18T23:31:21.111Z,100050.95
2019-05-18T23:33:53.231Z,100047.97
2019-05-18T23:36:25.655Z,100046.64
2019-05-18T23:38:57.940Z,100045.57
2019-05-18T23:41:31.590Z,100041.27
2019-05-18T23:44:03.619Z,100043.75
2019-05-18T23:46:36.227Z,100042.34
2019-05-18T23:49:10.718Z,100043.96
2019-05-18T23:51:43.622Z,100042.41
2019-05-18T23:54:18.843Z,100042.27
2019-05-18T23:56:52.529Z,100033.44
2019-05-18T23:59:26.140Z,100031.73
